createdAt,value
2018-08-09T00:01:12.705Z,18.40
2018-08-09T00:04:16.291Z,13.73
2018-08-09T00:07:19.958Z,16.77
2018-08-09T00:10:23.618Z,26.17
2018-08-09T00:13:27.219Z,19.10
2018-08-09T00:16:30.789Z,13.77
2018-08-09T00:19:34.594Z,14.40
2018-08-09T00:22:38.160Z,12.87
2018-08-09T00:25:41.788Z,13.03
2018-08-09T00:28:45.434Z,11.00
2018-08-09T00:31:49.113Z,17.50
2018-08-09T00:34:52.733Z,15.60
2018-08-09T00:37:56.547Z,13.30
2018-08-09T00:41:00.179Z,11.53
2018-08-09T00:44:03.904Z,17.10
2018-08-09T00:47:07.642Z,14.10
2018-08-09T00:50:11.498Z,18.23
2018-08-09T00:53:15.096Z,17.70
2018-08-09T00:56:18.712Z,15.07
2018-08-09T00:59:22.470Z,17.70
2018-08-09T01:02:26.116Z,13.70
2018-08-09T01:05:29.855Z,17.33
2018-08-09T01:08:33.516Z,14.10
2018-08-09T01:11:38.078Z,15.23
2018-08-09T01:14:41.919Z,14.20
2018-08-09T01:17:45.533Z,12.87
2018-08-09T01:20:49.160Z,13.60
2018-08-09T01:23:52.958Z,22.77
2018-08-09T01:26:56.653Z,16.43
2018-08-09T01:30:00.244Z,16.23
2018-08-09T01:33:03.979Z,14.70
2018-08-09T01:36:07.631Z,18.30
2018-08-09T01:39:13.543Z,14.57
2018-08-09T01:42:28.217Z,15.57
2018-08-09T01:45:31.939Z,23.03
2018-08-09T01:48:35.556Z,15.23
2018-08-09T01:51:39.156Z,16.83
2018-08-09T01:54:42.896Z,16.27
2018-08-09T01:57:46.651Z,15.73
2018-08-09T02:00:50.246Z,19.13
2018-08-09T02:03:53.843Z,15.07
2018-08-09T02:06:57.445Z,17.03
2018-08-09T02:10:00.996Z,15.70
2018-08-09T02:13:04.597Z,15.17
2018-08-09T02:16:08.275Z,13.80
2018-08-09T02:19:11.919Z,12.93
2018-08-09T02:22:15.552Z,14.53
2018-08-09T02:25:19.277Z,11.30
2018-08-09T02:28:22.954Z,12.20
2018-08-09T02:31:26.560Z,11.87
2018-08-09T02:34:30.259Z,15.47
2018-08-09T02:37:33.801Z,10.57
2018-08-09T02:40:37.451Z,11.03
2018-08-09T02:43:41.031Z,11.97
2018-08-09T02:46:44.795Z,17.10
2018-08-09T02:49:48.337Z,13.97
2018-08-09T02:52:52.038Z,14.87
2018-08-09T02:57:13.075Z,11.50
2018-08-09T03:00:16.769Z,15.50
2018-08-09T03:03:20.422Z,15.60
2018-08-09T03:06:24.075Z,17.00
2018-08-09T03:09:27.750Z,13.47
2018-08-09T03:12:31.316Z,11.67
2018-08-09T03:15:35.074Z,11.67
2018-08-09T03:18:38.891Z,12.63
2018-08-09T03:21:42.495Z,20.53
2018-08-09T03:24:46.235Z,14.57
2018-08-09T03:27:49.991Z,17.40
2018-08-09T03:30:53.614Z,16.17
2018-08-09T03:33:57.217Z,19.50
2018-08-09T03:37:00.904Z,15.50
2018-08-09T03:40:05.100Z,19.00
2018-08-09T03:43:08.729Z,13.93
2018-08-09T03:46:12.326Z,13.80
2018-08-09T03:49:16.024Z,14.80
2018-08-09T03:52:19.670Z,14.47
2018-08-09T03:55:24.171Z,16.37
2018-08-09T03:58:27.836Z,15.73
2018-08-09T04:01:31.430Z,18.50
2018-08-09T04:04:35.052Z,17.67
2018-08-09T04:07:39.085Z,16.67
2018-08-09T04:10:42.773Z,17.57
2018-08-09T04:13:47.495Z,21.00
2018-08-09T04:16:51.222Z,17.40
2018-08-09T04:19:54.843Z,17.47
2018-08-09T04:22:58.471Z,14.70
2018-08-09T04:26:02.203Z,14.10
2018-08-09T04:29:05.888Z,13.60
2018-08-09T04:32:09.487Z,13.77
2018-08-09T04:35:13.088Z,16.63
2018-08-09T04:38:17.016Z,20.27
2018-08-09T04:41:20.740Z,20.80
2018-08-09T04:44:24.365Z,18.57
2018-08-09T04:47:27.985Z,23.00
2018-08-09T04:50:31.572Z,20.80
2018-08-09T04:53:35.214Z,25.13
2018-08-09T04:56:38.970Z,19.13
2018-08-09T04:59:42.547Z,24.30
2018-08-09T05:02:46.156Z,23.50
2018-08-09T05:05:49.791Z,24.07
2018-08-09T05:08:53.513Z,29.57
2018-08-09T05:11:57.087Z,27.00
2018-08-09T05:15:01.963Z,25.00
2018-08-09T05:18:05.713Z,25.87
2018-08-09T05:21:09.643Z,20.30
2018-08-09T05:24:13.366Z,27.10
2018-08-09T05:27:17.058Z,21.00
2018-08-09T05:30:20.730Z,33.33
2018-08-09T05:33:24.353Z,23.53
2018-08-09T05:36:27.988Z,29.93
2018-08-09T05:39:31.645Z,31.87
2018-08-09T05:42:35.428Z,26.63
2018-08-09T05:45:39.148Z,24.50
2018-08-09T05:48:42.915Z,24.43
2018-08-09T05:51:46.643Z,27.23
2018-08-09T05:54:50.381Z,25.03
2018-08-09T05:57:54.097Z,32.93
2018-08-09T06:00:57.776Z,22.93
2018-08-09T06:04:01.397Z,26.33
2018-08-09T06:07:05.432Z,22.33
2018-08-09T06:10:09.173Z,25.57
2018-08-09T06:13:12.904Z,23.60
2018-08-09T06:16:16.659Z,25.63
2018-08-09T06:19:20.332Z,22.70
2018-08-09T06:22:23.979Z,22.37
2018-08-09T06:25:27.878Z,20.90
2018-08-09T06:28:31.609Z,24.07
2018-08-09T06:31:35.216Z,25.83
2018-08-09T06:34:39.047Z,26.03
2018-08-09T06:37:42.653Z,24.97
2018-08-09T06:40:46.302Z,24.00
2018-08-09T06:43:49.965Z,23.77
2018-08-09T06:46:53.647Z,21.17
2018-08-09T06:49:57.489Z,25.70
2018-08-09T06:53:01.182Z,24.70
2018-08-09T06:56:04.856Z,23.17
2018-08-09T06:59:08.513Z,23.30
2018-08-09T07:02:12.197Z,23.00
2018-08-09T07:05:15.907Z,26.40
2018-08-09T07:08:19.567Z,23.67
2018-08-09T07:11:23.372Z,23.40
2018-08-09T07:14:26.966Z,25.07
2018-08-09T07:17:30.632Z,25.67
2018-08-09T07:20:34.352Z,24.33
2018-08-09T07:23:38.173Z,19.17
2018-08-09T07:26:42.063Z,18.47
2018-08-09T07:29:45.728Z,28.03
2018-08-09T07:32:49.443Z,21.40
2018-08-09T07:35:53.132Z,27.40
2018-08-09T07:38:56.765Z,18.93
2018-08-09T07:42:00.506Z,22.93
2018-08-09T07:45:04.856Z,19.13
2018-08-09T07:48:08.502Z,20.73
2018-08-09T07:51:12.107Z,22.00
2018-08-09T07:54:15.850Z,22.10
2018-08-09T07:57:19.605Z,20.80
2018-08-09T08:00:23.314Z,18.77
2018-08-09T08:03:27.136Z,20.50
2018-08-09T08:06:30.797Z,20.43
2018-08-09T08:09:34.467Z,16.50
2018-08-09T08:12:38.262Z,22.50
2018-08-09T08:15:41.934Z,21.97
2018-08-09T08:18:46.808Z,24.43
2018-08-09T08:21:50.429Z,17.50
2018-08-09T08:24:54.088Z,22.90
2018-08-09T08:27:57.793Z,17.20
2018-08-09T08:31:01.488Z,20.67
2018-08-09T08:34:05.240Z,16.03
2018-08-09T08:37:08.899Z,19.90
2018-08-09T08:40:12.679Z,20.03
2018-08-09T08:43:16.354Z,18.53
2018-08-09T08:46:20.088Z,24.67
2018-08-09T08:49:23.708Z,23.23
2018-08-09T08:52:27.396Z,22.83
2018-08-09T08:55:31.176Z,27.47
2018-08-09T08:58:34.985Z,29.13
2018-08-09T09:01:38.814Z,28.53
2018-08-09T09:04:42.465Z,29.13
2018-08-09T09:07:46.183Z,32.73
2018-08-09T09:10:54.978Z,32.73
2018-08-09T09:13:58.709Z,37.03
2018-08-09T09:17:02.494Z,37.50
2018-08-09T09:20:08.970Z,35.43
2018-08-09T09:23:12.966Z,42.10
2018-08-09T09:26:16.755Z,41.60
2018-08-09T09:29:20.441Z,40.60
2018-08-09T09:32:24.088Z,35.47
2018-08-09T09:35:27.779Z,40.37
2018-08-09T09:38:31.387Z,42.93
2018-08-09T09:41:35.186Z,36.77
2018-08-09T09:44:38.933Z,38.37
2018-08-09T09:47:42.542Z,39.87
2018-08-09T09:50:46.329Z,31.03
2018-08-09T09:53:50.100Z,33.27
2018-08-09T09:56:53.879Z,33.37
2018-08-09T09:59:57.565Z,30.10
2018-08-09T10:03:01.181Z,33.30
2018-08-09T10:06:04.896Z,29.67
2018-08-09T10:09:10.186Z,28.10
2018-08-09T10:12:13.876Z,28.30
2018-08-09T10:15:17.589Z,36.00
2018-08-09T10:18:21.284Z,29.43
2018-08-09T10:21:24.910Z,32.73
2018-08-09T10:24:28.688Z,36.70
2018-08-09T10:27:32.315Z,33.03
2018-08-09T10:30:35.906Z,33.57
2018-08-09T10:33:39.774Z,39.77
2018-08-09T10:36:43.437Z,32.90
2018-08-09T10:39:47.064Z,31.70
2018-08-09T10:42:50.780Z,34.70
2018-08-09T10:45:54.394Z,32.83
2018-08-09T10:48:58.192Z,28.63
2018-08-09T10:52:01.840Z,33.37
2018-08-09T10:55:05.735Z,31.60
2018-08-09T10:58:09.401Z,29.10
2018-08-09T11:01:13.157Z,31.17
2018-08-09T11:04:16.872Z,34.47
2018-08-09T11:07:20.556Z,36.73
2018-08-09T11:10:24.227Z,35.30
2018-08-09T11:13:27.895Z,37.27
2018-08-09T11:16:31.517Z,34.83
2018-08-09T11:19:35.845Z,30.70
2018-08-09T11:22:39.849Z,26.83
2018-08-09T11:25:43.780Z,29.77
2018-08-09T11:28:47.443Z,23.63
2018-08-09T11:31:51.192Z,25.40
2018-08-09T11:34:54.827Z,26.37
2018-08-09T11:37:58.545Z,24.70
2018-08-09T11:41:02.156Z,21.37
2018-08-09T11:44:05.820Z,24.17
2018-08-09T11:47:09.554Z,21.67
2018-08-09T11:50:13.175Z,22.03
2018-08-09T11:53:16.991Z,23.40
2018-08-09T11:56:20.656Z,22.03
2018-08-09T11:59:24.247Z,23.90
2018-08-09T12:02:27.859Z,24.60
2018-08-09T12:05:31.630Z,34.87
2018-08-09T12:08:35.317Z,26.30
2018-08-09T12:11:39.308Z,20.33
2018-08-09T12:14:43.131Z,24.27
2018-08-09T12:17:46.767Z,24.73
2018-08-09T12:20:50.529Z,24.13
2018-08-09T12:23:54.345Z,20.63
2018-08-09T12:26:58.056Z,20.17
2018-08-09T12:30:01.714Z,19.83
2018-08-09T12:33:05.659Z,17.70
2018-08-09T12:36:09.332Z,24.63
2018-08-09T12:39:13.751Z,19.87
2018-08-09T12:42:17.382Z,16.83
2018-08-09T12:45:21.087Z,20.83
2018-08-09T12:48:24.738Z,15.00
2018-08-09T12:51:28.385Z,14.27
2018-08-09T12:54:32.111Z,17.13
2018-08-09T12:57:35.871Z,14.73
2018-08-09T13:00:39.636Z,20.57
2018-08-09T13:03:43.441Z,16.63
2018-08-09T13:06:47.236Z,17.67
2018-08-09T13:09:50.945Z,15.60
2018-08-09T13:12:54.580Z,14.57
2018-08-09T13:15:58.177Z,24.43
2018-08-09T13:19:01.859Z,14.20
2018-08-09T13:22:05.995Z,18.63
2018-08-09T13:25:09.790Z,15.10
2018-08-09T13:28:13.465Z,13.57
2018-08-09T13:31:17.185Z,13.30
2018-08-09T13:34:20.777Z,16.53
2018-08-09T13:37:24.483Z,19.30
2018-08-09T13:40:28.191Z,16.37
2018-08-09T13:43:31.996Z,15.10
2018-08-09T13:46:35.718Z,15.80
2018-08-09T13:49:39.411Z,17.03
2018-08-09T13:52:43.223Z,15.40
2018-08-09T13:55:46.972Z,15.33
2018-08-09T13:58:50.695Z,21.43
2018-08-09T14:01:54.398Z,16.80
2018-08-09T14:04:58.131Z,15.60
2018-08-09T14:08:01.802Z,16.43
2018-08-09T14:11:05.546Z,24.50
2018-08-09T14:14:09.218Z,16.17
2018-08-09T14:17:12.961Z,18.13
2018-08-09T14:20:17.962Z,17.27
2018-08-09T14:23:21.700Z,16.80
2018-08-09T14:26:25.470Z,10.90
2018-08-09T14:29:29.212Z,16.77
2018-08-09T14:32:32.951Z,16.27
2018-08-09T14:35:36.712Z,17.10
2018-08-09T14:38:40.479Z,10.27
2018-08-09T14:41:44.208Z,14.73
2018-08-09T14:44:47.939Z,20.30
2018-08-09T14:47:51.664Z,15.13
2018-08-09T14:50:55.358Z,17.20
2018-08-09T14:53:59.242Z,19.77
2018-08-09T14:57:03.008Z,13.17
2018-08-09T15:00:11.565Z,16.70
2018-08-09T15:03:15.454Z,12.77
2018-08-09T15:06:19.388Z,15.97
2018-08-09T15:09:23.164Z,14.63
2018-08-09T15:12:26.844Z,19.17
2018-08-09T15:15:30.794Z,13.40
2018-08-09T15:18:34.685Z,13.83
2018-08-09T15:21:38.529Z,18.30
2018-08-09T15:24:42.338Z,13.87
2018-08-09T15:27:46.128Z,19.60
2018-08-09T15:30:49.787Z,20.27
2018-08-09T15:33:53.671Z,12.63
2018-08-09T15:36:57.379Z,12.97
2018-08-09T15:40:01.046Z,13.27
2018-08-09T15:43:04.819Z,10.50
2018-08-09T15:46:08.990Z,13.23
2018-08-09T15:49:12.724Z,11.07
2018-08-09T15:52:16.424Z,9.83
2018-08-09T15:55:20.299Z,8.70
2018-08-09T15:58:24.226Z,10.70
2018-08-09T16:01:27.999Z,14.80
2018-08-09T16:04:31.795Z,8.50
2018-08-09T16:07:35.633Z,10.60
2018-08-09T16:10:39.323Z,12.03
2018-08-09T16:13:42.975Z,13.97
2018-08-09T16:16:46.663Z,10.63
2018-08-09T16:19:50.370Z,12.90
2018-08-09T16:22:54.059Z,9.60
2018-08-09T16:25:57.900Z,14.50
2018-08-09T16:29:01.793Z,17.80
2018-08-09T16:32:05.585Z,8.50
2018-08-09T16:35:09.515Z,10.33
2018-08-09T16:38:13.196Z,7.50
2018-08-09T16:41:16.988Z,8.03
2018-08-09T16:44:20.845Z,15.37
2018-08-09T16:47:24.700Z,11.83
2018-08-09T16:50:28.608Z,10.40
2018-08-09T16:53:32.260Z,8.17
2018-08-09T16:56:36.132Z,12.73
2018-08-09T16:59:39.819Z,8.73
2018-08-09T17:02:43.544Z,8.00
2018-08-09T17:05:47.384Z,5.47
2018-08-09T17:08:51.506Z,13.93
2018-08-09T17:11:55.303Z,10.27
2018-08-09T17:14:59.125Z,5.60
2018-08-09T17:18:02.813Z,6.90
2018-08-09T17:21:06.948Z,6.67
2018-08-09T17:24:11.500Z,8.33
2018-08-09T17:27:15.231Z,6.03
2018-08-09T17:30:21.924Z,7.43
2018-08-09T17:33:25.638Z,4.43
2018-08-09T17:36:29.438Z,6.63
2018-08-09T17:39:33.199Z,5.10
2018-08-09T17:42:36.899Z,4.50
2018-08-09T17:45:40.620Z,5.47
2018-08-09T17:48:44.241Z,5.30
2018-08-09T17:51:48.156Z,5.80
2018-08-09T17:54:51.851Z,8.50
2018-08-09T17:57:55.793Z,5.63
2018-08-09T18:00:59.542Z,5.80
2018-08-09T18:04:03.445Z,9.93
2018-08-09T18:07:07.216Z,7.33
2018-08-09T18:10:17.618Z,5.10
2018-08-09T18:13:21.363Z,6.53
2018-08-09T18:16:25.150Z,9.40
2018-08-09T18:19:28.869Z,11.07
2018-08-09T18:22:32.492Z,5.50
2018-08-09T18:25:36.403Z,5.37
2018-08-09T18:28:40.404Z,8.23
2018-08-09T18:31:44.199Z,5.40
2018-08-09T18:34:47.993Z,5.47
2018-08-09T18:37:51.807Z,5.47
2018-08-09T18:40:55.526Z,6.93
2018-08-09T18:43:59.261Z,8.90
2018-08-09T18:47:03.065Z,7.53
2018-08-09T18:50:09.517Z,6.00
2018-08-09T18:53:13.376Z,6.77
2018-08-09T18:56:17.133Z,8.07
2018-08-09T18:59:20.925Z,8.67
2018-08-09T19:02:24.645Z,10.07
2018-08-09T19:05:28.572Z,8.70
2018-08-09T19:08:32.225Z,8.00
2018-08-09T19:11:36.014Z,10.87
2018-08-09T19:14:39.813Z,8.10
2018-08-09T19:17:43.867Z,5.33
2018-08-09T19:20:47.620Z,5.07
2018-08-09T19:23:51.570Z,7.63
2018-08-09T19:26:55.451Z,9.23
2018-08-09T19:29:59.198Z,6.50
2018-08-09T19:33:03.005Z,8.70
2018-08-09T19:36:06.685Z,6.13
2018-08-09T19:39:12.846Z,10.93
2018-08-09T19:42:16.585Z,7.30
2018-08-09T19:45:20.629Z,6.43
2018-08-09T19:48:24.333Z,5.03
2018-08-09T19:51:28.465Z,8.80
2018-08-09T19:54:32.078Z,6.77
2018-08-09T19:57:35.890Z,6.17
2018-08-09T20:00:39.704Z,7.07
2018-08-09T20:03:43.319Z,6.37
2018-08-09T20:06:47.090Z,7.27
2018-08-09T20:09:50.654Z,7.33
2018-08-09T20:12:54.378Z,8.47
2018-08-09T20:15:58.206Z,7.23
2018-08-09T20:19:02.259Z,5.63
2018-08-09T20:22:11.090Z,5.00
2018-08-09T20:25:15.354Z,5.97
2018-08-09T20:28:19.028Z,5.60
2018-08-09T20:31:22.716Z,7.80
2018-08-09T20:34:26.397Z,4.50
2018-08-09T20:37:30.102Z,5.50
2018-08-09T20:40:34.006Z,4.70
2018-08-09T20:43:37.757Z,5.83
2018-08-09T20:46:41.452Z,5.40
2018-08-09T20:49:45.107Z,5.87
2018-08-09T20:52:49.519Z,5.07
2018-08-09T20:55:53.236Z,6.13
2018-08-09T20:58:57.725Z,5.00
2018-08-09T21:02:01.450Z,5.30
2018-08-09T21:05:05.384Z,7.40
2018-08-09T21:08:09.315Z,6.90
2018-08-09T21:11:13.069Z,9.83
2018-08-09T21:14:16.767Z,5.77
2018-08-09T21:17:20.534Z,5.83
2018-08-09T21:20:24.357Z,6.30
2018-08-09T21:23:28.152Z,5.77
2018-08-09T21:26:31.779Z,5.33
2018-08-09T21:29:35.531Z,4.93
2018-08-09T21:32:39.268Z,4.90
2018-08-09T21:35:42.891Z,6.67
2018-08-09T21:38:46.741Z,5.17
2018-08-09T21:41:50.370Z,4.30
2018-08-09T21:44:54.276Z,5.70
2018-08-09T21:47:57.971Z,4.53
2018-08-09T21:51:01.652Z,5.53
2018-08-09T21:54:05.449Z,5.40
2018-08-09T21:57:09.238Z,5.53
2018-08-09T22:00:59.513Z,5.00
2018-08-09T22:04:03.216Z,4.90
2018-08-09T22:07:12.465Z,4.00
2018-08-09T22:10:21.431Z,4.10
2018-08-09T22:13:30.315Z,4.83
2018-08-09T22:16:39.137Z,4.50
2018-08-09T22:19:47.835Z,6.50
2018-08-09T22:22:51.426Z,6.53
2018-08-09T22:25:55.226Z,4.90
2018-08-09T22:28:58.861Z,6.47
2018-08-09T22:32:02.618Z,3.87
2018-08-09T22:35:06.642Z,5.60
2018-08-09T22:38:10.246Z,5.00
2018-08-09T22:41:13.891Z,4.03
2018-08-09T22:44:17.561Z,4.30
2018-08-09T22:47:21.201Z,4.43
2018-08-09T22:50:24.811Z,4.83
2018-08-09T22:53:28.537Z,5.73
2018-08-09T22:56:35.040Z,6.50
2018-08-09T22:59:38.711Z,4.30
2018-08-09T23:02:42.310Z,4.60
2018-08-09T23:05:46.025Z,5.10
2018-08-09T23:08:49.682Z,6.67
2018-08-09T23:11:53.353Z,4.50
2018-08-09T23:14:56.967Z,3.20
2018-08-09T23:18:00.702Z,4.73
2018-08-09T23:21:04.323Z,4.90
2018-08-09T23:24:08.211Z,3.40
2018-08-09T23:27:11.881Z,7.63
2018-08-09T23:30:15.611Z,3.03
2018-08-09T23:33:22.885Z,3.63
2018-08-09T23:36:26.448Z,3.70
2018-08-09T23:39:30.161Z,4.20
2018-08-09T23:42:34.521Z,3.10
2018-08-09T23:45:38.049Z,3.30
2018-08-09T23:48:41.737Z,3.10
2018-08-09T23:51:45.536Z,9.20
2018-08-09T23:54:49.186Z,4.27
2018-08-09T23:57:52.871Z,3.83
